Time;durP1;ratioP1;P1;durP2;ratioP2;P2;SDS_P1;SDS_P2;PMS_P1;PMS_P2;Temp;Humidity;BMP_temperature;BMP_pressure;BME280_temperature;BME280_humidity;BME280_pressure;Samples;Min_cycle;Max_cycle;Signal;HPM_P1;HPM_P2
2021/01/15 00:02:24;;;;;;;13.47;10.17;;;;;;;1.24;100.00;101653.69;5070334;28;20647;-72
2021/01/15 00:04:50;;;;;;;13.13;9.67;;;;;;;1.23;100.00;101641.34;5070099;28;20199;-71
2021/01/15 00:07:21;;;;;;;13.87;9.43;;;;;;;1.23;100.00;101652.06;5053913;28;20226;-72
2021/01/15 00:09:46;;;;;;;12.90;10.03;;;;;;;1.39;100.00;101651.84;5070748;28;20191;-73
2021/01/15 00:12:12;;;;;;;13.60;10.03;;;;;;;1.44;100.00;101638.69;5069918;28;20226;-72
2021/01/15 00:14:42;;;;;;;11.10;8.93;;;;;;;1.57;100.00;101638.84;5070610;28;20199;-72
2021/01/15 00:17:11;;;;;;;11.47;8.53;;;;;;;1.54;100.00;101649.94;5053786;28;20215;-72
2021/01/15 00:19:36;;;;;;;13.43;8.83;;;;;;;1.48;100.00;101645.31;5070706;28;20691;-72
2021/01/15 00:22:04;;;;;;;10.60;8.27;;;;;;;1.50;100.00;101647.81;5086323;28;20292;-71
2021/01/15 00:24:30;;;;;;;11.53;8.60;;;;;;;1.56;100.00;101647.91;5053199;28;20207;-71
2021/01/15 00:26:55;;;;;;;12.30;9.37;;;;;;;1.58;100.00;101657.38;5053031;28;20715;-71
2021/01/15 00:29:23;;;;;;;11.97;8.90;;;;;;;1.71;100.00;101654.00;5070523;28;20171;-72
2021/01/15 00:31:49;;;;;;;11.73;8.77;;;;;;;1.67;100.00;101655.44;5052649;28;20310;-71
2021/01/15 00:34:17;;;;;;;11.93;9.37;;;;;;;1.54;100.00;101652.59;5053176;28;20706;-71
2021/01/15 00:36:49;;;;;;;12.67;8.50;;;;;;;1.58;100.00;101656.56;5035989;28;20211;-72
2021/01/15 00:39:16;;;;;;;11.80;8.87;;;;;;;1.72;100.00;101652.97;5053530;28;20331;-71
2021/01/15 00:41:44;;;;;;;11.50;9.20;;;;;;;1.72;100.00;101651.16;5053221;28;20214;-72
2021/01/15 00:44:10;;;;;;;13.87;8.90;;;;;;;1.77;100.00;101650.56;5020140;28;20620;-71
2021/01/15 00:46:45;;;;;;;8.93;7.93;;;;;;;1.68;100.00;101646.34;5036790;28;20233;-72
2021/01/15 00:49:12;;;;;;;10.60;7.90;;;;;;;1.63;100.00;101651.44;5071011;28;20672;-71
2021/01/15 00:51:49;;;;;;;10.67;8.40;;;;;;;1.84;100.00;101651.47;5037163;28;20826;-71
2021/01/15 00:54:15;;;;;;;11.87;8.47;;;;;;;1.80;100.00;101650.19;5036113;28;20620;-71
2021/01/15 00:56:41;;;;;;;10.13;7.87;;;;;;;1.88;100.00;101647.38;5035979;28;20615;-71
2021/01/15 00:59:13;;;;;;;10.37;8.37;;;;;;;1.78;100.00;101646.88;5038420;28;20190;-72
2021/01/15 01:01:49;;;;;;;9.50;7.50;;;;;;;1.65;100.00;101657.47;5039009;28;20321;-72
2021/01/15 01:04:15;;;;;;;9.83;8.20;;;;;;;1.47;100.00;101643.69;5019902;28;20712;-71
2021/01/15 01:06:43;;;;;;;10.67;8.00;;;;;;;1.45;100.00;101645.72;5072989;28;20222;-71
2021/01/15 01:09:09;;;;;;;9.33;7.10;;;;;;;1.35;100.00;101645.19;5060559;28;20189;-71
2021/01/15 01:11:37;;;;;;;9.73;8.33;;;;;;;1.30;100.00;101655.63;5043221;28;20876;-72
2021/01/15 01:14:04;;;;;;;11.33;8.27;;;;;;;1.25;100.00;101658.03;5059751;28;20207;-71
2021/01/15 01:16:29;;;;;;;11.13;8.70;;;;;;;1.44;100.00;101645.91;5075410;28;20605;-71
2021/01/15 01:18:57;;;;;;;11.70;8.97;;;;;;;1.44;100.00;101657.44;5060287;28;20197;-72
2021/01/15 01:21:27;;;;;;;13.37;8.60;;;;;;;1.36;100.00;101652.19;5075509;28;20210;-71
2021/01/15 01:23:54;;;;;;;12.87;9.23;;;;;;;1.23;100.00;101652.06;5060541;28;20198;-71
2021/01/15 01:26:22;;;;;;;12.70;9.70;;;;;;;1.52;100.00;101658.16;5041872;28;20606;-71
2021/01/15 01:28:48;;;;;;;11.87;9.47;;;;;;;1.56;100.00;101666.63;5059680;28;20622;-72
2021/01/15 01:31:15;;;;;;;14.77;9.70;;;;;;;1.46;100.00;101663.41;5059076;28;20243;-71
2021/01/15 01:33:41;;;;;;;12.37;9.53;;;;;;;1.34;100.00;101662.25;5059685;28;20262;-71
2021/01/15 01:36:11;;;;;;;13.87;10.30;;;;;;;1.36;100.00;101662.91;5058696;28;20229;-71
2021/01/15 01:38:41;;;;;;;13.67;9.53;;;;;;;1.49;100.00;101665.72;5059930;28;20178;-71
2021/01/15 01:41:12;;;;;;;13.37;9.50;;;;;;;1.31;100.00;101670.66;5076422;28;20310;-71
2021/01/15 01:43:40;;;;;;;12.33;9.63;;;;;;;1.33;100.00;101673.16;5075922;28;20187;-71
2021/01/15 01:46:08;;;;;;;14.13;9.47;;;;;;;1.23;100.00;101677.97;5062615;28;20245;-71
2021/01/15 01:48:36;;;;;;;13.67;9.50;;;;;;;1.44;100.00;101676.16;5095965;28;20212;-71
2021/01/15 01:51:05;;;;;;;12.77;9.60;;;;;;;1.47;100.00;101674.97;5062995;28;20256;-72
2021/01/15 01:53:31;;;;;;;13.87;8.97;;;;;;;1.45;100.00;101677.84;5095928;28;20279;-71
2021/01/15 01:55:58;;;;;;;13.17;8.67;;;;;;;1.17;100.00;101674.22;5061589;28;20271;-71
2021/01/15 01:58:26;;;;;;;13.67;9.90;;;;;;;1.49;100.00;101673.75;5063100;28;20655;-71
2021/01/15 02:00:56;;;;;;;14.63;10.27;;;;;;;1.34;100.00;101685.53;5045595;28;20221;-71
2021/01/15 02:03:25;;;;;;;12.93;9.10;;;;;;;1.37;100.00;101675.25;5064082;28;20174;-71
2021/01/15 02:05:50;;;;;;;16.07;10.73;;;;;;;1.44;100.00;101676.16;5078164;28;20781;-71
2021/01/15 02:08:18;;;;;;;14.37;10.10;;;;;;;1.37;100.00;101679.78;5062704;28;20186;-71
2021/01/15 02:10:46;;;;;;;13.33;9.90;;;;;;;1.51;100.00;101679.75;5062257;28;20224;-71
2021/01/15 02:13:17;;;;;;;13.17;10.03;;;;;;;1.67;100.00;101677.66;5046403;28;20190;-72
2021/01/15 02:15:58;;;;;;;14.47;10.40;;;;;;;1.55;100.00;101678.34;5079928;28;20249;-72
2021/01/15 02:18:45;;;;;;;13.20;9.40;;;;;;;1.66;100.00;101680.53;5094781;28;20182;-71
2021/01/15 02:21:48;;;;;;;11.70;9.27;;;;;;;1.67;100.00;101677.66;5061807;28;20256;-71
2021/01/15 02:24:34;;;;;;;13.10;9.57;;;;;;;1.55;100.00;101683.69;5111473;28;20194;-71
2021/01/15 02:27:37;;;;;;;12.83;9.03;;;;;;;1.36;100.00;101681.63;5094114;28;20230;-72
2021/01/15 02:30:11;;;;;;;12.53;8.63;;;;;;;1.34;100.00;101689.03;5095173;28;20219;-71
2021/01/15 02:32:49;;;;;;;10.73;8.47;;;;;;;1.39;100.00;101686.63;5093690;28;20208;-72
2021/01/15 02:35:35;;;;;;;11.53;9.10;;;;;;;1.55;100.00;101681.00;5076368;28;20190;-71
2021/01/15 02:38:09;;;;;;;12.57;9.70;;;;;;;1.76;100.00;101691.72;5094483;28;20659;-71
2021/01/15 02:40:49;;;;;;;12.40;9.33;;;;;;;1.66;100.00;101684.03;5042742;28;20569;-72
2021/01/15 02:43:15;;;;;;;12.07;8.93;;;;;;;1.63;100.00;101687.09;5045549;28;20178;-72
2021/01/15 02:45:43;;;;;;;10.57;8.67;;;;;;;1.59;100.00;101695.66;5058669;28;20230;-71
2021/01/15 02:48:10;;;;;;;12.80;9.57;;;;;;;1.76;100.00;101686.38;5075808;28;20596;-71
2021/01/15 02:50:35;;;;;;;12.33;9.13;;;;;;;1.82;100.00;101696.34;5074935;28;20214;-71
2021/01/15 02:53:03;;;;;;;11.53;9.23;;;;;;;1.79;100.00;101689.50;5059425;28;20189;-71
2021/01/15 02:55:31;;;;;;;14.10;9.67;;;;;;;1.78;100.00;101695.09;5058329;28;20325;-72
2021/01/15 02:57:59;;;;;;;12.80;9.43;;;;;;;1.73;100.00;101692.94;5075789;28;20617;-71
2021/01/15 03:00:25;;;;;;;12.87;9.60;;;;;;;1.76;100.00;101691.72;5075369;28;20187;-71
2021/01/15 03:03:26;;;;;;;13.50;9.33;;;;;;;1.82;100.00;101702.53;5075858;28;20179;-71
2021/01/15 03:05:58;;;;;;;13.63;9.70;;;;;;;1.77;100.00;101698.75;5074072;28;20222;-71
2021/01/15 03:08:24;;;;;;;11.67;8.77;;;;;;;1.83;100.00;101689.97;5059226;28;20189;-71
2021/01/15 03:10:53;;;;;;;12.33;9.30;;;;;;;1.93;100.00;101702.84;5057807;28;20226;-71
2021/01/15 03:13:19;;;;;;;13.93;8.83;;;;;;;1.98;100.00;101708.47;5058883;28;20193;-71
2021/01/15 03:15:45;;;;;;;13.20;9.57;;;;;;;1.81;100.00;101700.84;5057854;28;20226;-71
2021/01/15 03:18:13;;;;;;;13.80;8.87;;;;;;;1.68;100.00;101699.91;5059726;28;20253;-71
2021/01/15 03:20:39;;;;;;;12.30;8.87;;;;;;;1.84;100.00;101705.03;5075316;28;20638;-71
2021/01/15 03:23:06;;;;;;;11.27;8.97;;;;;;;1.75;100.00;101700.81;5075764;28;20185;-72
2021/01/15 03:25:34;;;;;;;11.90;8.57;;;;;;;1.85;100.00;101712.00;5058870;28;20264;-71
2021/01/15 03:28:00;;;;;;;11.33;8.73;;;;;;;1.76;100.00;101707.78;5092892;28;20277;-71
2021/01/15 03:30:29;;;;;;;10.87;7.90;;;;;;;1.84;100.00;101723.75;5073082;28;20225;-72
2021/01/15 03:32:56;;;;;;;12.00;8.17;;;;;;;1.60;100.00;101721.44;5041929;28;20715;-72
2021/01/15 03:35:22;;;;;;;11.83;8.33;;;;;;;1.45;100.00;101711.75;5073804;28;20226;-71
2021/01/15 03:38:10;;;;;;;11.10;8.47;;;;;;;1.43;100.00;101717.34;5074662;28;20178;-71
2021/01/15 03:40:42;;;;;;;10.43;7.87;;;;;;;1.34;100.00;101722.97;5073903;28;20221;-71
2021/01/15 03:43:18;;;;;;;12.77;8.83;;;;;;;1.29;100.00;101720.84;5074795;28;20210;-72
2021/01/15 03:45:50;;;;;;;9.77;7.97;;;;;;;1.24;100.00;101720.56;5073231;28;20344;-71
2021/01/15 03:48:18;;;;;;;12.30;9.20;;;;;;;1.37;100.00;101718.06;5059228;28;20239;-71
2021/01/15 03:50:44;;;;;;;12.87;8.73;;;;;;;1.37;100.00;101727.94;5090490;28;20734;-71
2021/01/15 03:53:12;;;;;;;11.40;8.13;;;;;;;1.49;100.00;101716.56;5074641;28;20265;-71
2021/01/15 03:55:38;;;;;;;11.17;8.83;;;;;;;1.61;100.00;101723.06;5056729;28;20222;-71
2021/01/15 03:58:03;;;;;;;13.23;8.37;;;;;;;1.56;100.00;101720.97;5074378;28;20562;-71
2021/01/15 04:00:29;;;;;;;13.27;9.17;;;;;;;1.54;100.00;101719.53;5055455;28;20248;-71
2021/01/15 04:02:55;;;;;;;13.10;8.77;;;;;;;1.48;100.00;101725.59;5072500;28;20174;-72
2021/01/15 04:05:20;;;;;;;10.57;8.20;;;;;;;1.35;100.00;101729.97;5055954;28;20706;-71
2021/01/15 04:07:48;;;;;;;13.73;8.83;;;;;;;1.49;100.00;101721.09;5074572;28;20182;-72
2021/01/15 04:10:15;;;;;;;12.47;9.10;;;;;;;1.50;100.00;101718.22;5075404;28;20608;-71
2021/01/15 04:12:43;;;;;;;12.90;9.33;;;;;;;1.52;100.00;101721.56;5092669;28;20288;-71
2021/01/15 04:15:10;;;;;;;14.73;10.07;;;;;;;1.62;100.00;101714.03;5074342;28;20190;-72
2021/01/15 04:17:36;;;;;;;12.43;9.73;;;;;;;1.57;100.00;101724.47;5091488;28;20596;-72
2021/01/15 04:20:04;;;;;;;14.07;9.90;;;;;;;1.58;100.00;101720.81;5074649;28;20182;-71
2021/01/15 04:22:43;;;;;;;13.03;10.03;;;;;;;1.68;100.00;101729.34;5074999;28;20186;-72
2021/01/15 04:25:09;;;;;;;13.27;9.47;;;;;;;1.85;100.00;101725.41;5074906;28;20209;-71
2021/01/15 04:27:38;;;;;;;13.30;9.77;;;;;;;1.76;100.00;101730.06;5073860;28;20181;-71
2021/01/15 04:30:08;;;;;;;13.23;9.40;;;;;;;1.84;100.00;101729.13;5089981;28;20178;-71
2021/01/15 04:32:37;;;;;;;13.90;9.33;;;;;;;1.86;100.00;101735.13;5073989;28;20181;-72
2021/01/15 04:35:04;;;;;;;13.93;9.30;;;;;;;1.84;100.00;101737.16;5073758;28;20194;-71
2021/01/15 04:37:31;;;;;;;14.23;9.70;;;;;;;1.69;100.00;101745.22;5089705;28;20718;-72
2021/01/15 04:39:57;;;;;;;13.10;10.40;;;;;;;1.49;100.00;101743.34;5090199;28;20642;-72
2021/01/15 04:42:23;;;;;;;13.87;9.40;;;;;;;1.47;100.00;101739.19;5039385;28;20225;-72
2021/01/15 04:44:50;;;;;;;14.47;9.53;;;;;;;1.42;100.00;101745.09;5056179;28;20210;-72
2021/01/15 04:47:15;;;;;;;12.87;9.73;;;;;;;1.49;100.00;101743.34;5073187;28;20592;-71
2021/01/15 04:49:41;;;;;;;12.30;10.00;;;;;;;1.57;100.00;101740.53;5073411;28;20186;-71
2021/01/15 04:52:14;;;;;;;16.20;9.57;;;;;;;1.61;100.00;101741.81;5072691;28;20225;-71
2021/01/15 04:54:43;;;;;;;13.83;9.43;;;;;;;1.72;100.00;101746.69;5072889;28;20247;-71
2021/01/15 04:57:10;;;;;;;13.10;9.30;;;;;;;1.59;100.00;101744.72;5056942;28;20359;-72
2021/01/15 04:59:50;;;;;;;13.17;9.93;;;;;;;1.48;100.00;101747.00;5074562;28;20178;-72
2021/01/15 05:02:16;;;;;;;12.13;9.13;;;;;;;1.33;100.00;101745.38;5070277;28;20214;-71
2021/01/15 05:04:42;;;;;;;12.73;9.87;;;;;;;1.31;100.00;101750.09;5053679;28;20654;-71
2021/01/15 05:07:09;;;;;;;11.57;9.67;;;;;;;1.51;100.00;101746.66;5032824;28;20223;-72
2021/01/15 05:09:45;;;;;;;15.00;9.73;;;;;;;1.69;100.00;101745.22;5053182;28;20187;-72
2021/01/15 05:12:12;;;;;;;14.27;9.90;;;;;;;1.68;100.00;101743.56;5019431;28;20267;-71
2021/01/15 05:14:38;;;;;;;15.70;10.47;;;;;;;1.51;100.00;101749.31;5036196;28;20255;-71
2021/01/15 05:17:05;;;;;;;13.13;10.27;;;;;;;1.53;100.00;101756.13;5085358;28;20301;-71
2021/01/15 05:19:37;;;;;;;14.10;10.37;;;;;;;1.50;100.00;101755.69;5090148;28;20179;-71
2021/01/15 05:22:02;;;;;;;13.87;10.30;;;;;;;1.39;100.00;101768.72;5056044;28;20295;-71
2021/01/15 05:24:30;;;;;;;14.67;10.67;;;;;;;1.47;100.00;101756.06;5069357;28;20813;-71
2021/01/15 05:26:56;;;;;;;15.80;10.00;;;;;;;1.29;100.00;101766.31;5067946;28;20226;-71
2021/01/15 05:29:24;;;;;;;14.17;10.13;;;;;;;1.38;100.00;101767.88;5056037;28;20564;-71
2021/01/15 05:31:53;;;;;;;15.13;10.10;;;;;;;1.37;100.00;101771.56;5055603;28;20217;-71
2021/01/15 05:34:19;;;;;;;14.53;11.00;;;;;;;1.48;100.00;101759.56;5068774;28;20203;-73
2021/01/15 05:36:45;;;;;;;16.80;11.07;;;;;;;1.49;100.00;101764.75;5058505;28;20228;-71
2021/01/15 05:39:15;;;;;;;15.80;11.30;;;;;;;1.77;100.00;101763.03;5046225;28;20187;-72
2021/01/15 05:41:49;;;;;;;16.10;11.33;;;;;;;1.57;100.00;101762.78;5076720;28;20229;-71
2021/01/15 05:44:26;;;;;;;14.77;10.87;;;;;;;1.42;100.00;101771.03;5078263;28;20282;-70
2021/01/15 05:46:51;;;;;;;17.43;11.50;;;;;;;1.67;100.00;101773.22;5081441;28;20280;-71
2021/01/15 05:49:17;;;;;;;15.90;11.90;;;;;;;1.72;100.00;101776.13;5069520;28;20209;-71
2021/01/15 05:51:42;;;;;;;23.53;12.53;;;;;;;1.84;100.00;101769.28;5068852;28;20765;-71
2021/01/15 05:54:11;;;;;;;18.20;12.67;;;;;;;1.75;100.00;101770.41;5066750;28;20206;-70
2021/01/15 05:56:49;;;;;;;17.07;12.77;;;;;;;1.76;100.00;101782.75;5093474;28;20257;-71
2021/01/15 05:59:19;;;;;;;16.60;12.37;;;;;;;1.67;100.00;101781.25;5091593;28;20193;-70
2021/01/15 06:01:55;;;;;;;18.57;12.27;;;;;;;1.75;100.00;101787.31;5060945;28;20206;-71
2021/01/15 06:04:39;;;;;;;20.63;13.30;;;;;;;1.81;100.00;101786.53;5076705;28;20228;-71
2021/01/15 06:07:13;;;;;;;15.80;11.90;;;;;;;1.73;100.00;101794.69;5087070;28;20214;-70
2021/01/15 06:09:43;;;;;;;18.03;12.17;;;;;;;1.83;100.00;101794.38;5094886;28;20200;-71
2021/01/15 06:12:14;;;;;;;17.57;12.37;;;;;;;1.87;100.00;101795.66;5063259;28;20211;-72
2021/01/15 06:14:58;;;;;;;15.97;12.03;;;;;;;1.83;100.00;101800.56;5084842;28;20547;-71
2021/01/15 06:17:26;;;;;;;19.77;12.10;;;;;;;1.88;100.00;101802.69;5061828;28;20221;-71
2021/01/15 06:19:59;;;;;;;19.87;12.93;;;;;;;1.96;100.00;101796.22;5076061;28;20639;-71
2021/01/15 06:22:51;;;;;;;18.33;12.67;;;;;;;1.79;100.00;101799.28;5081993;28;20272;-71
2021/01/15 06:25:23;;;;;;;18.13;12.60;;;;;;;1.85;100.00;101798.56;5087568;28;20214;-71
2021/01/15 06:27:51;;;;;;;15.97;12.03;;;;;;;1.82;100.00;101806.97;5092745;28;20679;-71
2021/01/15 06:30:23;;;;;;;18.87;12.20;;;;;;;1.90;100.00;101803.34;5092172;28;20178;-74
2021/01/15 06:32:49;;;;;;;17.17;12.40;;;;;;;1.93;100.00;101806.47;5043124;28;20201;-71
2021/01/15 06:35:24;;;;;;;17.37;13.00;;;;;;;1.73;100.00;101799.22;5055739;28;20198;-72
2021/01/15 06:37:58;;;;;;;19.47;12.97;;;;;;;1.77;100.00;101814.72;5091845;28;20186;-71
2021/01/15 06:40:49;;;;;;;19.17;12.67;;;;;;;1.87;100.00;101809.06;5057761;28;20742;-71
2021/01/15 06:43:26;;;;;;;18.07;12.30;;;;;;;1.91;100.00;101807.69;5061984;28;20565;-71
2021/01/15 06:45:52;;;;;;;18.53;13.27;;;;;;;1.93;100.00;101814.50;5070015;28;20274;-71
2021/01/15 06:48:19;;;;;;;18.10;13.13;;;;;;;1.81;100.00;101815.16;5070883;28;20218;-71
2021/01/15 06:50:49;;;;;;;17.47;12.73;;;;;;;1.81;100.00;101818.66;5069456;28;20233;-71
2021/01/15 06:53:14;;;;;;;18.60;13.07;;;;;;;1.86;100.00;101813.59;5085243;28;20548;-71
2021/01/15 06:55:42;;;;;;;19.97;12.63;;;;;;;1.87;100.00;101817.09;5074195;28;20297;-71
2021/01/15 06:58:12;;;;;;;20.50;13.73;;;;;;;1.86;100.00;101828.84;5073977;28;20213;-70
2021/01/15 07:00:37;;;;;;;19.40;13.10;;;;;;;1.76;100.00;101825.59;5058258;28;20308;-70
2021/01/15 07:03:18;;;;;;;18.77;13.70;;;;;;;1.74;100.00;101828.50;5056439;28;20182;-70
2021/01/15 07:05:47;;;;;;;20.03;13.13;;;;;;;1.74;100.00;101833.00;5058216;28;20226;-72
2021/01/15 07:08:15;;;;;;;18.03;13.23;;;;;;;1.78;100.00;101834.31;5042369;28;20178;-71
2021/01/15 07:10:46;;;;;;;20.27;13.97;;;;;;;1.55;100.00;101833.56;5059304;28;20252;-73
2021/01/15 07:13:12;;;;;;;20.10;13.33;;;;;;;1.72;100.00;101833.22;5076293;28;20251;-71
2021/01/15 07:15:41;;;;;;;21.93;14.37;;;;;;;1.87;100.00;101830.47;5057467;28;20225;-70
2021/01/15 07:18:29;;;;;;;21.77;13.83;;;;;;;1.62;100.00;101840.69;5092200;28;20213;-71
2021/01/15 07:20:57;;;;;;;18.53;13.20;;;;;;;1.65;100.00;101842.19;5053765;28;20688;-71
2021/01/15 07:23:42;;;;;;;18.93;12.97;;;;;;;1.62;100.00;101850.56;5055514;28;20175;-71
2021/01/15 07:26:11;;;;;;;17.97;12.57;;;;;;;1.58;100.00;101843.94;5087126;28;20709;-71
2021/01/15 07:28:36;;;;;;;16.30;11.97;;;;;;;1.47;100.00;101852.41;5038796;28;20181;-71
2021/01/15 07:31:04;;;;;;;18.80;12.23;;;;;;;1.40;100.00;101851.50;5060239;28;20950;-72
2021/01/15 07:33:30;;;;;;;18.23;12.83;;;;;;;1.60;100.00;101852.59;5078548;28;20261;-71
2021/01/15 07:35:56;;;;;;;18.43;12.70;;;;;;;1.83;100.00;101848.78;5066950;28;20309;-71
2021/01/15 07:38:24;;;;;;;17.03;11.73;;;;;;;1.65;100.00;101855.56;5087383;28;20272;-71
2021/01/15 07:40:50;;;;;;;17.17;11.27;;;;;;;1.55;100.00;101855.00;5073495;28;20287;-70
2021/01/15 07:43:33;;;;;;;18.60;12.10;;;;;;;1.45;100.00;101865.16;5041160;28;20186;-70
2021/01/15 07:46:00;;;;;;;16.33;10.67;;;;;;;1.49;100.00;101871.78;5073329;28;20224;-70
2021/01/15 07:48:29;;;;;;;17.20;11.67;;;;;;;1.39;100.00;101876.59;5057757;28;20228;-70
2021/01/15 07:50:54;;;;;;;15.00;10.53;;;;;;;1.32;100.00;101874.81;5091019;28;20226;-70
2021/01/15 07:53:22;;;;;;;16.17;11.03;;;;;;;1.40;100.00;101872.06;5058167;28;20182;-70
2021/01/15 07:56:00;;;;;;;15.63;11.07;;;;;;;1.27;100.00;101877.22;5073904;28;20221;-70
2021/01/15 07:58:37;;;;;;;15.70;10.67;;;;;;;1.37;100.00;101897.34;5075281;28;20217;-70
2021/01/15 08:01:13;;;;;;;13.10;10.20;;;;;;;1.22;100.00;101891.13;5091855;28;20250;-70
2021/01/15 08:03:40;;;;;;;15.43;10.50;;;;;;;1.27;100.00;101893.28;5075222;28;20761;-69
2021/01/15 08:06:06;;;;;;;15.03;9.70;;;;;;;1.25;100.00;101890.78;5056841;28;20218;-71
2021/01/15 08:08:32;;;;;;;13.63;9.47;;;;;;;1.27;100.00;101894.09;5093015;28;20189;-72
2021/01/15 08:11:11;;;;;;;17.33;12.53;;;;;;;1.22;100.00;101895.66;5082456;28;20703;-71
2021/01/15 08:13:39;;;;;;;14.47;11.03;;;;;;;1.26;100.00;101894.28;5058084;28;20227;-71
2021/01/15 08:16:06;;;;;;;16.83;13.80;;;;;;;1.14;100.00;101893.91;5055061;28;20241;-71
2021/01/15 08:18:32;;;;;;;16.53;12.03;;;;;;;1.26;100.00;101896.94;5057940;28;20182;-72
2021/01/15 08:20:58;;;;;;;13.20;10.37;;;;;;;1.27;100.00;101899.44;5073490;28;20256;-72
2021/01/15 08:23:25;;;;;;;15.07;10.87;;;;;;;1.21;100.00;101900.19;5073891;28;20191;-70
2021/01/15 08:26:00;;;;;;;16.53;11.23;;;;;;;1.21;100.00;101894.03;5039738;28;20233;-72
2021/01/15 08:28:25;;;;;;;13.00;9.97;;;;;;;1.19;100.00;101902.22;5089086;28;20182;-71
2021/01/15 08:31:01;;;;;;;10.47;7.77;;;;;;;1.13;100.00;101906.63;5069999;28;20695;-71
2021/01/15 08:33:29;;;;;;;12.80;9.07;;;;;;;1.08;100.00;101914.34;5089465;28;20260;-71
2021/01/15 08:35:59;;;;;;;10.90;8.27;;;;;;;1.02;100.00;101917.75;5078945;28;20238;-71
2021/01/15 08:38:35;;;;;;;11.83;8.03;;;;;;;1.01;100.00;101913.41;5077826;28;20688;-71
2021/01/15 08:41:02;;;;;;;12.07;8.20;;;;;;;1.12;100.00;101927.19;5074915;28;20226;-73
2021/01/15 08:43:29;;;;;;;9.03;7.20;;;;;;;1.21;100.00;101926.94;5074129;28;20193;-71
2021/01/15 08:46:00;;;;;;;11.77;8.00;;;;;;;1.11;100.00;101920.16;5073033;28;20236;-72
2021/01/15 08:48:29;;;;;;;9.50;7.70;;;;;;;1.24;100.00;101921.22;5090634;28;20222;-72
2021/01/15 08:50:55;;;;;;;9.73;7.67;;;;;;;1.12;100.00;101921.84;5089716;28;20225;-71
2021/01/15 08:53:23;;;;;;;10.07;8.03;;;;;;;1.20;100.00;101935.13;5073816;28;20208;-73
2021/01/15 08:55:48;;;;;;;10.50;7.87;;;;;;;1.10;100.00;101934.56;5068801;28;20234;-71
2021/01/15 08:58:14;;;;;;;10.53;8.03;;;;;;;1.09;100.00;101932.91;5070428;28;20190;-71
2021/01/15 09:00:39;;;;;;;10.87;8.10;;;;;;;0.96;100.00;101932.66;5052879;28;20249;-71
2021/01/15 09:03:05;;;;;;;9.23;7.03;;;;;;;1.19;100.00;101931.66;5070437;28;20187;-71
2021/01/15 09:05:34;;;;;;;9.47;7.73;;;;;;;1.30;99.88;101936.56;5069340;28;20223;-73
2021/01/15 09:08:03;;;;;;;11.93;8.27;;;;;;;1.19;99.64;101931.66;5055213;28;20274;-71
2021/01/15 09:10:31;;;;;;;11.40;8.50;;;;;;;1.04;99.67;101935.28;5079112;28;20220;-71
2021/01/15 09:13:03;;;;;;;9.43;7.63;;;;;;;1.04;99.64;101934.44;5053715;28;20195;-71
2021/01/15 09:15:31;;;;;;;9.03;7.67;;;;;;;1.25;98.50;101943.47;5084676;28;20764;-72
2021/01/15 09:17:59;;;;;;;10.60;8.43;;;;;;;1.18;98.11;101943.34;5069562;28;20209;-72
2021/01/15 09:20:25;;;;;;;10.43;8.00;;;;;;;1.14;97.75;101936.69;5052280;28;20219;-71
2021/01/15 09:22:52;;;;;;;10.40;7.60;;;;;;;1.23;98.10;101943.63;5019837;28;20270;-71
2021/01/15 09:25:20;;;;;;;11.40;7.77;;;;;;;1.44;97.66;101953.66;5048976;28;20301;-71
2021/01/15 09:27:45;;;;;;;9.77;7.83;;;;;;;1.42;97.65;101948.47;5076014;28;20609;-71
2021/01/15 09:30:12;;;;;;;10.80;8.03;;;;;;;1.46;96.85;101957.78;5059108;28;20174;-72
2021/01/15 09:32:46;;;;;;;9.07;7.30;;;;;;;1.50;96.19;101959.09;5094180;28;20178;-72
2021/01/15 09:35:13;;;;;;;9.57;7.43;;;;;;;1.37;96.28;101958.06;5092982;28;20185;-71
2021/01/15 09:37:42;;;;;;;10.87;7.87;;;;;;;1.39;95.63;101966.72;5076880;28;20204;-70
2021/01/15 09:40:09;;;;;;;10.17;7.23;;;;;;;1.44;95.18;101965.16;5083515;28;20527;-71
2021/01/15 09:42:37;;;;;;;10.03;7.87;;;;;;;1.40;95.28;101969.22;5073255;28;20652;-72
2021/01/15 09:45:06;;;;;;;10.27;8.10;;;;;;;1.45;95.53;101968.66;5074589;28;20743;-72
2021/01/15 09:47:31;;;;;;;12.57;8.17;;;;;;;1.43;95.16;101971.56;5056097;28;20305;-71
2021/01/15 09:49:57;;;;;;;12.10;8.07;;;;;;;1.44;95.44;101981.22;5075184;28;20261;-71
2021/01/15 09:52:23;;;;;;;10.30;8.47;;;;;;;1.59;95.01;101971.38;5039628;28;20293;-71
2021/01/15 09:54:48;;;;;;;10.93;8.00;;;;;;;1.67;93.87;101979.34;5057280;28;20203;-71
2021/01/15 09:57:14;;;;;;;12.27;8.27;;;;;;;1.44;93.67;101975.06;5021739;28;20216;-72
2021/01/15 09:59:42;;;;;;;10.83;7.90;;;;;;;1.43;94.05;101976.91;5054016;28;20215;-71
2021/01/15 10:02:10;;;;;;;11.20;8.53;;;;;;;1.37;94.02;101980.28;5070037;28;20222;-72
2021/01/15 10:04:36;;;;;;;10.30;8.33;;;;;;;1.21;95.17;101979.63;5040576;28;20272;-71
2021/01/15 10:07:02;;;;;;;17.27;12.83;;;;;;;1.35;94.82;101976.97;5089787;28;20739;-73
2021/01/15 10:09:27;;;;;;;14.20;9.97;;;;;;;1.34;94.97;101978.00;5093734;28;20256;-71
2021/01/15 10:11:56;;;;;;;12.07;9.20;;;;;;;1.32;94.77;101984.50;5056656;28;20215;-72
2021/01/15 10:14:22;;;;;;;14.03;10.07;;;;;;;1.30;95.00;101978.50;5056957;28;20761;-72
2021/01/15 10:16:49;;;;;;;15.17;10.30;;;;;;;1.36;94.72;101984.00;5055938;28;20214;-71
2021/01/15 10:19:16;;;;;;;10.80;8.37;;;;;;;1.12;95.10;101985.19;5056776;28;20175;-71
2021/01/15 10:21:42;;;;;;;11.30;8.43;;;;;;;1.13;96.14;101992.22;5089854;28;20719;-72
2021/01/15 10:24:08;;;;;;;11.07;8.73;;;;;;;1.08;95.71;101990.09;5074220;28;20214;-72
2021/01/15 10:26:35;;;;;;;11.20;8.37;;;;;;;1.26;95.91;101988.78;5087072;28;20218;-72
2021/01/15 10:29:06;;;;;;;12.17;8.73;;;;;;;1.21;94.56;101996.50;5092068;28;20621;-72
2021/01/15 10:31:32;;;;;;;10.70;8.63;;;;;;;1.20;94.93;101988.63;5075132;28;20577;-72
2021/01/15 10:34:01;;;;;;;13.40;9.37;;;;;;;1.26;94.79;101987.91;5059910;28;20179;-72
2021/01/15 10:36:29;;;;;;;11.97;8.77;;;;;;;1.21;95.00;101988.47;5076163;28;20224;-70
2021/01/15 10:39:00;;;;;;;14.47;10.90;;;;;;;1.27;93.89;101985.06;5100238;28;20273;-70
2021/01/15 10:41:31;;;;;;;11.30;8.50;;;;;;;1.09;93.04;101996.25;5071901;28;20214;-70
2021/01/15 10:43:57;;;;;;;10.47;8.10;;;;;;;1.00;93.29;101986.63;5072596;28;20217;-70
2021/01/15 10:46:33;;;;;;;10.87;8.97;;;;;;;0.99;93.84;101985.81;5054238;28;20227;-71
2021/01/15 10:49:00;;;;;;;11.93;8.03;;;;;;;1.12;92.91;101993.22;5063121;28;20188;-70
2021/01/15 10:51:26;;;;;;;11.77;8.70;;;;;;;1.00;92.48;101992.81;5075007;28;20225;-70
2021/01/15 10:53:54;;;;;;;13.80;8.60;;;;;;;1.00;93.05;102000.00;5058499;28;20225;-72
2021/01/15 10:56:22;;;;;;;12.87;9.03;;;;;;;0.94;92.76;101992.69;5085683;28;20248;-70
2021/01/15 10:58:51;;;;;;;12.27;8.77;;;;;;;1.18;92.46;101996.03;5075047;28;20210;-69
2021/01/15 11:01:20;;;;;;;12.70;9.10;;;;;;;1.21;91.65;101996.50;5091829;28;20253;-70
2021/01/15 11:03:46;;;;;;;10.67;7.97;;;;;;;1.07;90.37;101998.28;5058915;28;20210;-70
2021/01/15 11:06:21;;;;;;;10.90;8.70;;;;;;;0.99;91.82;101992.97;5074164;28;20386;-70
2021/01/15 11:08:49;;;;;;;10.73;7.87;;;;;;;1.08;91.61;102002.59;5065244;28;20879;-71
2021/01/15 11:11:17;;;;;;;12.83;8.80;;;;;;;1.06;91.30;101996.59;5045939;28;20237;-70
2021/01/15 11:13:45;;;;;;;14.27;8.93;;;;;;;1.03;91.22;102007.69;5065586;28;20537;-71
2021/01/15 11:16:12;;;;;;;10.43;8.50;;;;;;;0.93;91.94;102001.72;5089031;28;20218;-70
2021/01/15 11:18:38;;;;;;;10.07;7.73;;;;;;;0.97;90.72;101997.66;5040046;28;20183;-70
2021/01/15 11:21:04;;;;;;;11.37;8.73;;;;;;;0.83;90.80;101995.78;5085114;28;20236;-71
2021/01/15 11:23:32;;;;;;;10.17;7.80;;;;;;;0.92;90.55;101994.72;5091010;28;20544;-72
2021/01/15 11:25:58;;;;;;;9.50;7.70;;;;;;;0.81;90.22;101993.28;5090546;28;20272;-73
2021/01/15 11:28:26;;;;;;;10.53;8.13;;;;;;;0.90;89.79;101989.53;5075386;28;20560;-71